sensor_id;sensor_type;location;lat;lon;timestamp;P1;durP1;ratioP1;P2;durP2;ratioP2
31531;SDS011;23787;52.180;5.288;2022-09-30T00:01:14;48.20;;;45.60;;
31531;SDS011;23787;52.180;5.288;2022-09-30T00:11:16;61.00;;;57.90;;
31531;SDS011;23787;52.180;5.288;2022-09-30T00:16:16;61.00;;;57.90;;
31531;SDS011;23787;52.180;5.288;2022-09-30T00:21:15;61.00;;;57.90;;
31531;SDS011;23787;52.180;5.288;2022-09-30T00:26:17;59.90;;;56.90;;
31531;SDS011;23787;52.180;5.288;2022-09-30T00:31:16;59.90;;;56.90;;
31531;SDS011;23787;52.180;5.288;2022-09-30T00:36:14;59.90;;;56.90;;
31531;SDS011;23787;52.180;5.288;2022-09-30T00:41:14;61.80;;;58.70;;
31531;SDS011;23787;52.180;5.288;2022-09-30T00:46:18;61.80;;;58.70;;
31531;SDS011;23787;52.180;5.288;2022-09-30T00:51:14;61.80;;;58.70;;
31531;SDS011;23787;52.180;5.288;2022-09-30T00:56:18;70.70;;;67.10;;
31531;SDS011;23787;52.180;5.288;2022-09-30T01:01:15;70.70;;;67.10;;
31531;SDS011;23787;52.180;5.288;2022-09-30T01:11:15;71.00;;;67.50;;
31531;SDS011;23787;52.180;5.288;2022-09-30T01:16:24;71.00;;;67.50;;
31531;SDS011;23787;52.180;5.288;2022-09-30T01:31:21;72.40;;;68.90;;
31531;SDS011;23787;52.180;5.288;2022-09-30T01:36:23;72.40;;;68.90;;
31531;SDS011;23787;52.180;5.288;2022-09-30T01:41:22;63.70;;;60.20;;
31531;SDS011;23787;52.180;5.288;2022-09-30T01:46:21;63.70;;;60.20;;
31531;SDS011;23787;52.180;5.288;2022-09-30T01:56:16;73.90;;;70.30;;
31531;SDS011;23787;52.180;5.288;2022-09-30T02:01:18;73.90;;;70.30;;
31531;SDS011;23787;52.180;5.288;2022-09-30T02:06:18;73.90;;;70.30;;
31531;SDS011;23787;52.180;5.288;2022-09-30T02:11:17;65.10;;;61.80;;
31531;SDS011;23787;52.180;5.288;2022-09-30T02:16:19;65.10;;;61.80;;
31531;SDS011;23787;52.180;5.288;2022-09-30T02:21:18;65.10;;;61.80;;
31531;SDS011;23787;52.180;5.288;2022-09-30T02:26:19;69.10;;;65.70;;
31531;SDS011;23787;52.180;5.288;2022-09-30T02:31:17;69.10;;;65.70;;
31531;SDS011;23787;52.180;5.288;2022-09-30T02:41:18;71.20;;;67.70;;
31531;SDS011;23787;52.180;5.288;2022-09-30T02:46:23;71.20;;;67.70;;
31531;SDS011;23787;52.180;5.288;2022-09-30T02:51:18;71.20;;;67.70;;
31531;SDS011;23787;52.180;5.288;2022-09-30T03:01:15;63.10;;;59.80;;
31531;SDS011;23787;52.180;5.288;2022-09-30T03:06:14;63.10;;;59.80;;
31531;SDS011;23787;52.180;5.288;2022-09-30T03:11:16;71.50;;;67.60;;
31531;SDS011;23787;52.180;5.288;2022-09-30T03:26:26;67.00;;;63.60;;
31531;SDS011;23787;52.180;5.288;2022-09-30T03:31:22;67.00;;;63.60;;
31531;SDS011;23787;52.180;5.288;2022-09-30T03:36:19;67.00;;;63.60;;
31531;SDS011;23787;52.180;5.288;2022-09-30T03:41:21;68.20;;;64.80;;
31531;SDS011;23787;52.180;5.288;2022-09-30T03:46:17;68.20;;;64.80;;
31531;SDS011;23787;52.180;5.288;2022-09-30T03:51:15;70.20;;;66.70;;
31531;SDS011;23787;52.180;5.288;2022-09-30T03:56:14;70.20;;;66.70;;
31531;SDS011;23787;52.180;5.288;2022-09-30T04:01:17;70.20;;;66.70;;
31531;SDS011;23787;52.180;5.288;2022-09-30T04:06:14;82.20;;;78.20;;
31531;SDS011;23787;52.180;5.288;2022-09-30T04:26:16;82.30;;;78.30;;
31531;SDS011;23787;52.180;5.288;2022-09-30T04:31:14;82.30;;;78.30;;
31531;SDS011;23787;52.180;5.288;2022-09-30T04:36:14;86.00;;;81.90;;
31531;SDS011;23787;52.180;5.288;2022-09-30T04:41:15;86.00;;;81.90;;
31531;SDS011;23787;52.180;5.288;2022-09-30T04:46:16;86.00;;;81.90;;
31531;SDS011;23787;52.180;5.288;2022-09-30T04:56:15;81.70;;;77.70;;
31531;SDS011;23787;52.180;5.288;2022-09-30T05:01:16;81.70;;;77.70;;
31531;SDS011;23787;52.180;5.288;2022-09-30T05:06:14;86.40;;;82.30;;
31531;SDS011;23787;52.180;5.288;2022-09-30T05:11:17;86.40;;;82.30;;
31531;SDS011;23787;52.180;5.288;2022-09-30T05:21:17;101.70;;;96.90;;
31531;SDS011;23787;52.180;5.288;2022-09-30T05:26:14;101.70;;;96.90;;
31531;SDS011;23787;52.180;5.288;2022-09-30T05:36:15;91.60;;;87.30;;
31531;SDS011;23787;52.180;5.288;2022-09-30T05:41:14;91.60;;;87.30;;
31531;SDS011;23787;52.180;5.288;2022-09-30T05:46:15;91.60;;;87.30;;
31531;SDS011;23787;52.180;5.288;2022-09-30T05:51:14;97.70;;;93.10;;
31531;SDS011;23787;52.180;5.288;2022-09-30T06:16:14;97.00;;;92.40;;
31531;SDS011;23787;52.180;5.288;2022-09-30T06:21:15;102.10;;;97.20;;
31531;SDS011;23787;52.180;5.288;2022-09-30T06:31:14;102.10;;;97.20;;
31531;SDS011;23787;52.180;5.288;2022-09-30T06:36:14;100.00;;;95.30;;
31531;SDS011;23787;52.180;5.288;2022-09-30T06:41:14;100.00;;;95.30;;
31531;SDS011;23787;52.180;5.288;2022-09-30T06:46:14;100.00;;;95.30;;
31531;SDS011;23787;52.180;5.288;2022-09-30T06:51:14;97.20;;;92.60;;
31531;SDS011;23787;52.180;5.288;2022-09-30T06:56:14;97.20;;;92.60;;
31531;SDS011;23787;52.180;5.288;2022-09-30T07:01:14;97.20;;;92.60;;
31531;SDS011;23787;52.180;5.288;2022-09-30T07:06:14;104.50;;;99.60;;
31531;SDS011;23787;52.180;5.288;2022-09-30T07:11:14;104.50;;;99.60;;
31531;SDS011;23787;52.180;5.288;2022-09-30T07:16:16;104.50;;;99.60;;
31531;SDS011;23787;52.180;5.288;2022-09-30T07:21:14;96.20;;;91.60;;
31531;SDS011;23787;52.180;5.288;2022-09-30T07:26:16;96.20;;;91.60;;
31531;SDS011;23787;52.180;5.288;2022-09-30T07:31:16;96.20;;;91.60;;
31531;SDS011;23787;52.180;5.288;2022-09-30T07:36:14;65.20;;;61.80;;
31531;SDS011;23787;52.180;5.288;2022-09-30T07:41:17;65.20;;;61.80;;
31531;SDS011;23787;52.180;5.288;2022-09-30T07:46:17;65.20;;;61.80;;
31531;SDS011;23787;52.180;5.288;2022-09-30T07:51:16;57.60;;;54.60;;
31531;SDS011;23787;52.180;5.288;2022-09-30T07:56:15;57.60;;;54.60;;
31531;SDS011;23787;52.180;5.288;2022-09-30T08:01:14;57.60;;;54.60;;
31531;SDS011;23787;52.180;5.288;2022-09-30T08:06:16;44.70;;;42.10;;
31531;SDS011;23787;52.180;5.288;2022-09-30T08:11:14;44.70;;;42.10;;
31531;SDS011;23787;52.180;5.288;2022-09-30T08:16:14;44.70;;;42.10;;
31531;SDS011;23787;52.180;5.288;2022-09-30T08:21:14;126.30;;;119.30;;
31531;SDS011;23787;52.180;5.288;2022-09-30T08:26:15;126.30;;;119.30;;
31531;SDS011;23787;52.180;5.288;2022-09-30T08:31:16;126.30;;;119.30;;
31531;SDS011;23787;52.180;5.288;2022-09-30T08:36:17;309.40;;;290.90;;
31531;SDS011;23787;52.180;5.288;2022-09-30T08:41:25;309.40;;;290.90;;
31531;SDS011;23787;52.180;5.288;2022-09-30T08:46:19;309.40;;;290.90;;
31531;SDS011;23787;52.180;5.288;2022-09-30T08:51:25;335.50;;;311.90;;
31531;SDS011;23787;52.180;5.288;2022-09-30T08:56:19;335.50;;;311.90;;
31531;SDS011;23787;52.180;5.288;2022-09-30T09:01:17;335.50;;;311.90;;
31531;SDS011;23787;52.180;5.288;2022-09-30T09:06:22;265.00;;;244.00;;
31531;SDS011;23787;52.180;5.288;2022-09-30T09:11:20;265.00;;;244.00;;
31531;SDS011;23787;52.180;5.288;2022-09-30T09:16:20;265.00;;;244.00;;
31531;SDS011;23787;52.180;5.288;2022-09-30T09:21:19;159.90;;;146.80;;
31531;SDS011;23787;52.180;5.288;2022-09-30T09:26:15;159.90;;;146.80;;
31531;SDS011;23787;52.180;5.288;2022-09-30T09:31:16;159.90;;;146.80;;
31531;SDS011;23787;52.180;5.288;2022-09-30T09:36:25;170.70;;;157.00;;
31531;SDS011;23787;52.180;5.288;2022-09-30T09:41:24;170.70;;;157.00;;
31531;SDS011;23787;52.180;5.288;2022-09-30T09:46:19;170.70;;;157.00;;
31531;SDS011;23787;52.180;5.288;2022-09-30T09:51:20;152.70;;;139.70;;
31531;SDS011;23787;52.180;5.288;2022-09-30T09:56:17;152.70;;;139.70;;
31531;SDS011;23787;52.180;5.288;2022-09-30T10:01:19;152.70;;;139.70;;
31531;SDS011;23787;52.180;5.288;2022-09-30T10:06:14;109.10;;;98.70;;
31531;SDS011;23787;52.180;5.288;2022-09-30T10:11:19;109.10;;;98.70;;
31531;SDS011;23787;52.180;5.288;2022-09-30T10:16:25;109.10;;;98.70;;
31531;SDS011;23787;52.180;5.288;2022-09-30T10:21:20;88.20;;;80.20;;
31531;SDS011;23787;52.180;5.288;2022-09-30T10:26:17;88.20;;;80.20;;
31531;SDS011;23787;52.180;5.288;2022-09-30T10:31:16;88.20;;;80.20;;
31531;SDS011;23787;52.180;5.288;2022-09-30T10:36:16;51.70;;;46.10;;
31531;SDS011;23787;52.180;5.288;2022-09-30T10:41:21;51.70;;;46.10;;
31531;SDS011;23787;52.180;5.288;2022-09-30T10:46:20;51.70;;;46.10;;
31531;SDS011;23787;52.180;5.288;2022-09-30T10:51:22;56.00;;;50.70;;
31531;SDS011;23787;52.180;5.288;2022-09-30T11:01:20;56.00;;;50.70;;
31531;SDS011;23787;52.180;5.288;2022-09-30T11:06:14;38.90;;;35.00;;
31531;SDS011;23787;52.180;5.288;2022-09-30T11:11:18;38.90;;;35.00;;
31531;SDS011;23787;52.180;5.288;2022-09-30T11:16:19;38.90;;;35.00;;
31531;SDS011;23787;52.180;5.288;2022-09-30T11:21:18;47.70;;;42.60;;
31531;SDS011;23787;52.180;5.288;2022-09-30T11:26:26;47.70;;;42.60;;
31531;SDS011;23787;52.180;5.288;2022-09-30T11:31:23;47.70;;;42.60;;
31531;SDS011;23787;52.180;5.288;2022-09-30T11:36:20;40.70;;;37.20;;
31531;SDS011;23787;52.180;5.288;2022-09-30T11:41:21;40.70;;;37.20;;
31531;SDS011;23787;52.180;5.288;2022-09-30T11:46:23;40.70;;;37.20;;
31531;SDS011;23787;52.180;5.288;2022-09-30T11:51:18;40.40;;;36.20;;
31531;SDS011;23787;52.180;5.288;2022-09-30T11:56:23;40.40;;;36.20;;
31531;SDS011;23787;52.180;5.288;2022-09-30T12:01:19;40.40;;;36.20;;
31531;SDS011;23787;52.180;5.288;2022-09-30T12:06:22;35.40;;;32.40;;
31531;SDS011;23787;52.180;5.288;2022-09-30T12:11:17;35.40;;;32.40;;
31531;SDS011;23787;52.180;5.288;2022-09-30T12:16:17;35.40;;;32.40;;
31531;SDS011;23787;52.180;5.288;2022-09-30T12:21:20;36.10;;;33.00;;
31531;SDS011;23787;52.180;5.288;2022-09-30T12:26:15;36.10;;;33.00;;
31531;SDS011;23787;52.180;5.288;2022-09-30T12:31:29;36.10;;;33.00;;
31531;SDS011;23787;52.180;5.288;2022-09-30T12:36:27;35.90;;;32.90;;
31531;SDS011;23787;52.180;5.288;2022-09-30T12:41:22;35.90;;;32.90;;
31531;SDS011;23787;52.180;5.288;2022-09-30T12:46:19;35.90;;;32.90;;
31531;SDS011;23787;52.180;5.288;2022-09-30T12:51:21;41.10;;;37.70;;
31531;SDS011;23787;52.180;5.288;2022-09-30T12:56:16;41.10;;;37.70;;
31531;SDS011;23787;52.180;5.288;2022-09-30T13:01:17;41.10;;;37.70;;
31531;SDS011;23787;52.180;5.288;2022-09-30T13:06:16;43.00;;;39.00;;
31531;SDS011;23787;52.180;5.288;2022-09-30T13:11:33;43.00;;;39.00;;
31531;SDS011;23787;52.180;5.288;2022-09-30T13:21:18;39.00;;;35.30;;
31531;SDS011;23787;52.180;5.288;2022-09-30T13:26:32;39.00;;;35.30;;
31531;SDS011;23787;52.180;5.288;2022-09-30T13:31:15;39.00;;;35.30;;
31531;SDS011;23787;52.180;5.288;2022-09-30T13:36:23;45.90;;;41.60;;
31531;SDS011;23787;52.180;5.288;2022-09-30T13:41:19;45.90;;;41.60;;
31531;SDS011;23787;52.180;5.288;2022-09-30T13:46:21;45.90;;;41.60;;
31531;SDS011;23787;52.180;5.288;2022-09-30T13:51:15;45.70;;;41.50;;
31531;SDS011;23787;52.180;5.288;2022-09-30T13:56:18;45.70;;;41.50;;
31531;SDS011;23787;52.180;5.288;2022-09-30T14:01:26;45.70;;;41.50;;
31531;SDS011;23787;52.180;5.288;2022-09-30T14:06:22;41.40;;;37.40;;
31531;SDS011;23787;52.180;5.288;2022-09-30T14:21:27;56.90;;;51.70;;
31531;SDS011;23787;52.180;5.288;2022-09-30T14:31:14;56.90;;;51.70;;
31531;SDS011;23787;52.180;5.288;2022-09-30T14:36:16;63.00;;;56.80;;
31531;SDS011;23787;52.180;5.288;2022-09-30T14:41:18;63.00;;;56.80;;
31531;SDS011;23787;52.180;5.288;2022-09-30T14:46:23;63.00;;;56.80;;
31531;SDS011;23787;52.180;5.288;2022-09-30T14:51:16;74.10;;;67.20;;
31531;SDS011;23787;52.180;5.288;2022-09-30T15:01:15;74.10;;;67.20;;
31531;SDS011;23787;52.180;5.288;2022-09-30T15:06:17;85.70;;;78.00;;
31531;SDS011;23787;52.180;5.288;2022-09-30T15:11:17;85.70;;;78.00;;
31531;SDS011;23787;52.180;5.288;2022-09-30T15:16:22;85.70;;;78.00;;
31531;SDS011;23787;52.180;5.288;2022-09-30T15:21:15;79.70;;;72.80;;
31531;SDS011;23787;52.180;5.288;2022-09-30T15:26:14;79.70;;;72.80;;
31531;SDS011;23787;52.180;5.288;2022-09-30T15:31:22;79.70;;;72.80;;
31531;SDS011;23787;52.180;5.288;2022-09-30T15:36:16;98.90;;;89.90;;
31531;SDS011;23787;52.180;5.288;2022-09-30T15:41:15;98.90;;;89.90;;
31531;SDS011;23787;52.180;5.288;2022-09-30T15:51:28;137.20;;;126.10;;
31531;SDS011;23787;52.180;5.288;2022-09-30T15:56:16;137.20;;;126.10;;
31531;SDS011;23787;52.180;5.288;2022-09-30T16:01:16;137.20;;;126.10;;
31531;SDS011;23787;52.180;5.288;2022-09-30T16:06:15;128.60;;;116.90;;
31531;SDS011;23787;52.180;5.288;2022-09-30T16:21:27;156.60;;;144.10;;
31531;SDS011;23787;52.180;5.288;2022-09-30T16:26:19;156.60;;;144.10;;
31531;SDS011;23787;52.180;5.288;2022-09-30T16:36:15;214.50;;;197.50;;
31531;SDS011;23787;52.180;5.288;2022-09-30T16:41:14;214.50;;;197.50;;
31531;SDS011;23787;52.180;5.288;2022-09-30T16:51:15;196.20;;;180.60;;
31531;SDS011;23787;52.180;5.288;2022-09-30T16:56:16;196.20;;;180.60;;
31531;SDS011;23787;52.180;5.288;2022-09-30T17:01:18;196.20;;;180.60;;
31531;SDS011;23787;52.180;5.288;2022-09-30T17:06:16;236.20;;;217.80;;
31531;SDS011;23787;52.180;5.288;2022-09-30T17:11:15;236.20;;;217.80;;
31531;SDS011;23787;52.180;5.288;2022-09-30T17:16:14;236.20;;;217.80;;
31531;SDS011;23787;52.180;5.288;2022-09-30T17:21:16;245.10;;;226.10;;
31531;SDS011;23787;52.180;5.288;2022-09-30T17:26:15;245.10;;;226.10;;
31531;SDS011;23787;52.180;5.288;2022-09-30T17:31:15;245.10;;;226.10;;
31531;SDS011;23787;52.180;5.288;2022-09-30T17:36:14;282.00;;;261.80;;
31531;SDS011;23787;52.180;5.288;2022-09-30T17:41:14;282.00;;;261.80;;
31531;SDS011;23787;52.180;5.288;2022-09-30T17:51:15;306.40;;;284.20;;
31531;SDS011;23787;52.180;5.288;2022-09-30T17:56:16;306.40;;;284.20;;
31531;SDS011;23787;52.180;5.288;2022-09-30T18:06:15;325.80;;;303.10;;
31531;SDS011;23787;52.180;5.288;2022-09-30T18:11:18;325.80;;;303.10;;
31531;SDS011;23787;52.180;5.288;2022-09-30T18:21:14;314.90;;;294.10;;
31531;SDS011;23787;52.180;5.288;2022-09-30T18:31:15;314.90;;;294.10;;
31531;SDS011;23787;52.180;5.288;2022-09-30T18:41:15;351.60;;;328.10;;
31531;SDS011;23787;52.180;5.288;2022-09-30T18:46:14;351.60;;;328.10;;
31531;SDS011;23787;52.180;5.288;2022-09-30T18:51:14;354.60;;;331.60;;
31531;SDS011;23787;52.180;5.288;2022-09-30T18:56:14;354.60;;;331.60;;
31531;SDS011;23787;52.180;5.288;2022-09-30T19:01:15;354.60;;;331.60;;
31531;SDS011;23787;52.180;5.288;2022-09-30T19:06:14;342.00;;;319.60;;
31531;SDS011;23787;52.180;5.288;2022-09-30T19:11:15;342.00;;;319.60;;
31531;SDS011;23787;52.180;5.288;2022-09-30T19:16:15;342.00;;;319.60;;
31531;SDS011;23787;52.180;5.288;2022-09-30T19:21:15;341.20;;;319.10;;
31531;SDS011;23787;52.180;5.288;2022-09-30T19:26:14;341.20;;;319.10;;
31531;SDS011;23787;52.180;5.288;2022-09-30T19:31:15;341.20;;;319.10;;
31531;SDS011;23787;52.180;5.288;2022-09-30T19:36:15;334.10;;;313.50;;
31531;SDS011;23787;52.180;5.288;2022-09-30T19:41:16;334.10;;;313.50;;
31531;SDS011;23787;52.180;5.288;2022-09-30T19:46:15;334.10;;;313.50;;
31531;SDS011;23787;52.180;5.288;2022-09-30T19:51:15;324.40;;;303.00;;
31531;SDS011;23787;52.180;5.288;2022-09-30T19:56:17;324.40;;;303.00;;
31531;SDS011;23787;52.180;5.288;2022-09-30T20:01:17;324.40;;;303.00;;
31531;SDS011;23787;52.180;5.288;2022-09-30T20:06:15;341.00;;;320.20;;
31531;SDS011;23787;52.180;5.288;2022-09-30T20:26:15;326.20;;;305.70;;
31531;SDS011;23787;52.180;5.288;2022-09-30T20:31:15;326.20;;;305.70;;
31531;SDS011;23787;52.180;5.288;2022-09-30T20:51:17;325.70;;;305.60;;
31531;SDS011;23787;52.180;5.288;2022-09-30T20:56:15;325.70;;;305.60;;
31531;SDS011;23787;52.180;5.288;2022-09-30T21:01:17;325.70;;;305.60;;
31531;SDS011;23787;52.180;5.288;2022-09-30T21:06:16;293.40;;;275.00;;
31531;SDS011;23787;52.180;5.288;2022-09-30T21:11:16;293.40;;;275.00;;
31531;SDS011;23787;52.180;5.288;2022-09-30T21:21:16;316.40;;;297.20;;
31531;SDS011;23787;52.180;5.288;2022-09-30T21:26:16;316.40;;;297.20;;
31531;SDS011;23787;52.180;5.288;2022-09-30T21:31:17;316.40;;;297.20;;
31531;SDS011;23787;52.180;5.288;2022-09-30T21:36:15;329.90;;;310.00;;
31531;SDS011;23787;52.180;5.288;2022-09-30T21:41:15;329.90;;;310.00;;
31531;SDS011;23787;52.180;5.288;2022-09-30T21:46:15;329.90;;;310.00;;
31531;SDS011;23787;52.180;5.288;2022-09-30T21:51:15;314.00;;;294.10;;
31531;SDS011;23787;52.180;5.288;2022-09-30T22:01:15;314.00;;;294.10;;
31531;SDS011;23787;52.180;5.288;2022-09-30T22:11:16;300.50;;;282.50;;
31531;SDS011;23787;52.180;5.288;2022-09-30T22:21:15;286.40;;;269.20;;
31531;SDS011;23787;52.180;5.288;2022-09-30T22:26:17;286.40;;;269.20;;
31531;SDS011;23787;52.180;5.288;2022-09-30T22:36:15;272.40;;;256.40;;
31531;SDS011;23787;52.180;5.288;2022-09-30T22:51:15;272.10;;;256.30;;
31531;SDS011;23787;52.180;5.288;2022-09-30T23:01:15;272.10;;;256.30;;
31531;SDS011;23787;52.180;5.288;2022-09-30T23:06:15;252.50;;;236.90;;
31531;SDS011;23787;52.180;5.288;2022-09-30T23:21:16;220.90;;;207.70;;
31531;SDS011;23787;52.180;5.288;2022-09-30T23:26:17;220.90;;;207.70;;
31531;SDS011;23787;52.180;5.288;2022-09-30T23:31:16;220.90;;;207.70;;
31531;SDS011;23787;52.180;5.288;2022-09-30T23:46:15;223.00;;;210.00;;
31531;SDS011;23787;52.180;5.288;2022-09-30T23:51:15;213.70;;;200.00;;
